sensor_id;sensor_type;location;lat;lon;timestamp;temperature;humidity
78541;SHT31;67835;51.968;5.646;2023-03-14T00:01:26;14.4;66.8
78541;SHT31;67835;51.968;5.646;2023-03-14T00:03:55;14.4;67.4
78541;SHT31;67835;51.968;5.646;2023-03-14T00:06:26;14.3;69.7
78541;SHT31;67835;51.968;5.646;2023-03-14T00:08:57;14.2;69.3
78541;SHT31;67835;51.968;5.646;2023-03-14T00:11:27;14.0;70.1
78541;SHT31;67835;51.968;5.646;2023-03-14T00:13:57;13.9;70.7
78541;SHT31;67835;51.968;5.646;2023-03-14T00:16:27;13.8;70.5
78541;SHT31;67835;51.968;5.646;2023-03-14T00:18:58;13.8;70.9
78541;SHT31;67835;51.968;5.646;2023-03-14T00:21:28;13.7;70.0
78541;SHT31;67835;51.968;5.646;2023-03-14T00:23:57;13.6;69.9
78541;SHT31;67835;51.968;5.646;2023-03-14T00:26:27;13.5;69.8
78541;SHT31;67835;51.968;5.646;2023-03-14T00:28:57;13.4;69.8
78541;SHT31;67835;51.968;5.646;2023-03-14T00:31:27;13.4;70.2
78541;SHT31;67835;51.968;5.646;2023-03-14T00:33:57;13.3;70.6
78541;SHT31;67835;51.968;5.646;2023-03-14T00:36:28;13.2;70.5
78541;SHT31;67835;51.968;5.646;2023-03-14T00:38:58;13.2;70.6
78541;SHT31;67835;51.968;5.646;2023-03-14T00:41:30;13.1;70.2
78541;SHT31;67835;51.968;5.646;2023-03-14T00:43:59;13.1;69.7
78541;SHT31;67835;51.968;5.646;2023-03-14T00:46:29;13.0;68.0
78541;SHT31;67835;51.968;5.646;2023-03-14T00:49:01;13.0;66.4
78541;SHT31;67835;51.968;5.646;2023-03-14T00:51:30;13.0;66.1
78541;SHT31;67835;51.968;5.646;2023-03-14T00:54:01;13.0;65.6
78541;SHT31;67835;51.968;5.646;2023-03-14T00:56:31;12.9;63.7
78541;SHT31;67835;51.968;5.646;2023-03-14T00:59:00;12.9;64.4
78541;SHT31;67835;51.968;5.646;2023-03-14T01:01:30;12.9;63.4
78541;SHT31;67835;51.968;5.646;2023-03-14T01:04:00;12.9;63.3
78541;SHT31;67835;51.968;5.646;2023-03-14T01:06:29;12.9;63.2
78541;SHT31;67835;51.968;5.646;2023-03-14T01:09:00;12.9;63.2
78541;SHT31;67835;51.968;5.646;2023-03-14T01:11:32;12.9;63.4
78541;SHT31;67835;51.968;5.646;2023-03-14T01:14:03;12.9;63.9
78541;SHT31;67835;51.968;5.646;2023-03-14T01:16:34;12.9;63.7
78541;SHT31;67835;51.968;5.646;2023-03-14T01:19:04;12.9;63.6
78541;SHT31;67835;51.968;5.646;2023-03-14T01:21:35;12.9;64.0
78541;SHT31;67835;51.968;5.646;2023-03-14T01:24:10;12.9;64.9
78541;SHT31;67835;51.968;5.646;2023-03-14T01:26:40;12.9;66.2
78541;SHT31;67835;51.968;5.646;2023-03-14T01:29:10;12.9;66.6
78541;SHT31;67835;51.968;5.646;2023-03-14T01:31:39;12.8;67.4
78541;SHT31;67835;51.968;5.646;2023-03-14T01:34:09;12.7;67.9
78541;SHT31;67835;51.968;5.646;2023-03-14T01:36:39;12.6;68.0
78541;SHT31;67835;51.968;5.646;2023-03-14T01:39:09;12.6;67.5
78541;SHT31;67835;51.968;5.646;2023-03-14T01:41:40;12.5;67.6
78541;SHT31;67835;51.968;5.646;2023-03-14T01:44:12;12.5;67.4
78541;SHT31;67835;51.968;5.646;2023-03-14T01:46:43;12.5;67.3
78541;SHT31;67835;51.968;5.646;2023-03-14T01:49:30;12.4;67.4
78541;SHT31;67835;51.968;5.646;2023-03-14T01:52:05;12.4;68.2
78541;SHT31;67835;51.968;5.646;2023-03-14T01:54:39;12.4;69.7
78541;SHT31;67835;51.968;5.646;2023-03-14T01:57:13;12.4;70.6
78541;SHT31;67835;51.968;5.646;2023-03-14T01:59:48;12.3;71.0
78541;SHT31;67835;51.968;5.646;2023-03-14T02:02:23;12.2;71.5
78541;SHT31;67835;51.968;5.646;2023-03-14T02:04:54;12.2;72.2
78541;SHT31;67835;51.968;5.646;2023-03-14T02:07:33;12.1;72.8
78541;SHT31;67835;51.968;5.646;2023-03-14T02:10:06;12.0;73.2
78541;SHT31;67835;51.968;5.646;2023-03-14T02:12:36;11.9;73.5
78541;SHT31;67835;51.968;5.646;2023-03-14T02:15:08;11.9;73.9
78541;SHT31;67835;51.968;5.646;2023-03-14T02:17:38;11.8;74.4
78541;SHT31;67835;51.968;5.646;2023-03-14T02:20:23;11.7;74.9
78541;SHT31;67835;51.968;5.646;2023-03-14T02:22:55;11.6;75.5
78541;SHT31;67835;51.968;5.646;2023-03-14T02:25:37;11.6;75.8
78541;SHT31;67835;51.968;5.646;2023-03-14T02:28:10;11.5;76.3
78541;SHT31;67835;51.968;5.646;2023-03-14T02:30:41;11.5;76.8
78541;SHT31;67835;51.968;5.646;2023-03-14T02:33:13;11.4;76.8
78541;SHT31;67835;51.968;5.646;2023-03-14T02:35:46;11.4;76.9
78541;SHT31;67835;51.968;5.646;2023-03-14T02:38:20;11.4;76.8
78541;SHT31;67835;51.968;5.646;2023-03-14T02:40:51;11.4;76.9
78541;SHT31;67835;51.968;5.646;2023-03-14T02:43:23;11.3;76.9
78541;SHT31;67835;51.968;5.646;2023-03-14T02:45:54;11.3;76.7
78541;SHT31;67835;51.968;5.646;2023-03-14T02:48:26;11.3;76.8
78541;SHT31;67835;51.968;5.646;2023-03-14T02:50:58;11.3;76.7
78541;SHT31;67835;51.968;5.646;2023-03-14T02:53:31;11.3;76.3
78541;SHT31;67835;51.968;5.646;2023-03-14T02:56:01;11.3;76.4
78541;SHT31;67835;51.968;5.646;2023-03-14T02:58:31;11.3;75.8
78541;SHT31;67835;51.968;5.646;2023-03-14T03:01:00;11.3;75.6
78541;SHT31;67835;51.968;5.646;2023-03-14T03:03:30;11.3;75.5
78541;SHT31;67835;51.968;5.646;2023-03-14T03:06:00;11.3;75.3
78541;SHT31;67835;51.968;5.646;2023-03-14T03:08:29;11.3;75.3
78541;SHT31;67835;51.968;5.646;2023-03-14T03:11:01;11.3;75.4
78541;SHT31;67835;51.968;5.646;2023-03-14T03:13:31;11.3;75.2
78541;SHT31;67835;51.968;5.646;2023-03-14T03:16:01;11.3;75.0
78541;SHT31;67835;51.968;5.646;2023-03-14T03:18:31;11.3;74.9
78541;SHT31;67835;51.968;5.646;2023-03-14T03:21:02;11.3;74.8
78541;SHT31;67835;51.968;5.646;2023-03-14T03:23:33;11.3;74.7
78541;SHT31;67835;51.968;5.646;2023-03-14T03:26:02;11.3;74.7
78541;SHT31;67835;51.968;5.646;2023-03-14T03:28:32;11.3;74.6
78541;SHT31;67835;51.968;5.646;2023-03-14T03:31:08;11.3;74.3
78541;SHT31;67835;51.968;5.646;2023-03-14T03:33:38;11.3;74.0
78541;SHT31;67835;51.968;5.646;2023-03-14T03:36:09;11.4;73.5
78541;SHT31;67835;51.968;5.646;2023-03-14T03:38:41;11.4;73.4
78541;SHT31;67835;51.968;5.646;2023-03-14T03:41:10;11.4;73.0
78541;SHT31;67835;51.968;5.646;2023-03-14T03:43:40;11.4;73.4
78541;SHT31;67835;51.968;5.646;2023-03-14T03:46:09;11.4;73.1
78541;SHT31;67835;51.968;5.646;2023-03-14T03:48:39;11.4;72.9
78541;SHT31;67835;51.968;5.646;2023-03-14T03:51:12;11.4;72.8
78541;SHT31;67835;51.968;5.646;2023-03-14T03:53:43;11.4;73.1
78541;SHT31;67835;51.968;5.646;2023-03-14T03:56:13;11.4;72.7
78541;SHT31;67835;51.968;5.646;2023-03-14T03:58:43;11.5;72.4
78541;SHT31;67835;51.968;5.646;2023-03-14T04:01:15;11.5;71.9
78541;SHT31;67835;51.968;5.646;2023-03-14T04:03:45;11.5;71.8
78541;SHT31;67835;51.968;5.646;2023-03-14T04:06:15;11.5;71.6
78541;SHT31;67835;51.968;5.646;2023-03-14T04:08:44;11.5;71.4
78541;SHT31;67835;51.968;5.646;2023-03-14T04:11:14;11.5;71.4
78541;SHT31;67835;51.968;5.646;2023-03-14T04:13:43;11.5;71.5
78541;SHT31;67835;51.968;5.646;2023-03-14T04:16:17;11.5;71.4
78541;SHT31;67835;51.968;5.646;2023-03-14T04:18:48;11.5;71.2
78541;SHT31;67835;51.968;5.646;2023-03-14T04:21:18;11.5;71.2
78541;SHT31;67835;51.968;5.646;2023-03-14T04:23:48;11.6;70.9
78541;SHT31;67835;51.968;5.646;2023-03-14T04:26:17;11.6;70.8
78541;SHT31;67835;51.968;5.646;2023-03-14T04:28:47;11.6;70.7
78541;SHT31;67835;51.968;5.646;2023-03-14T04:31:19;11.6;70.5
78541;SHT31;67835;51.968;5.646;2023-03-14T04:33:49;11.7;70.6
78541;SHT31;67835;51.968;5.646;2023-03-14T04:36:18;11.7;70.4
78541;SHT31;67835;51.968;5.646;2023-03-14T04:38:48;11.7;70.4
78541;SHT31;67835;51.968;5.646;2023-03-14T04:41:17;11.7;70.1
78541;SHT31;67835;51.968;5.646;2023-03-14T04:43:47;11.8;69.9
78541;SHT31;67835;51.968;5.646;2023-03-14T04:46:16;11.8;70.1
78541;SHT31;67835;51.968;5.646;2023-03-14T04:48:47;11.9;69.9
78541;SHT31;67835;51.968;5.646;2023-03-14T04:51:17;11.9;69.5
78541;SHT31;67835;51.968;5.646;2023-03-14T04:53:50;12.0;69.7
78541;SHT31;67835;51.968;5.646;2023-03-14T04:56:19;12.1;68.7
78541;SHT31;67835;51.968;5.646;2023-03-14T04:58:49;12.2;68.1
78541;SHT31;67835;51.968;5.646;2023-03-14T05:01:19;12.3;67.6
78541;SHT31;67835;51.968;5.646;2023-03-14T05:03:49;12.3;67.5
78541;SHT31;67835;51.968;5.646;2023-03-14T05:06:18;12.3;67.5
78541;SHT31;67835;51.968;5.646;2023-03-14T05:08:50;12.3;67.7
78541;SHT31;67835;51.968;5.646;2023-03-14T05:11:19;12.3;67.5
78541;SHT31;67835;51.968;5.646;2023-03-14T05:13:49;12.3;68.2
78541;SHT31;67835;51.968;5.646;2023-03-14T05:16:18;12.3;68.1
78541;SHT31;67835;51.968;5.646;2023-03-14T05:18:48;12.3;68.1
78541;SHT31;67835;51.968;5.646;2023-03-14T05:21:17;12.2;68.2
78541;SHT31;67835;51.968;5.646;2023-03-14T05:23:46;12.2;68.6
78541;SHT31;67835;51.968;5.646;2023-03-14T05:26:16;12.2;68.5
78541;SHT31;67835;51.968;5.646;2023-03-14T05:28:45;12.2;68.8
78541;SHT31;67835;51.968;5.646;2023-03-14T05:31:15;12.2;69.0
78541;SHT31;67835;51.968;5.646;2023-03-14T05:33:45;12.2;69.2
78541;SHT31;67835;51.968;5.646;2023-03-14T05:36:14;12.2;69.3
78541;SHT31;67835;51.968;5.646;2023-03-14T05:38:44;12.1;69.5
78541;SHT31;67835;51.968;5.646;2023-03-14T05:41:13;12.1;69.8
78541;SHT31;67835;51.968;5.646;2023-03-14T05:43:43;12.1;70.1
78541;SHT31;67835;51.968;5.646;2023-03-14T05:46:12;12.1;70.9
78541;SHT31;67835;51.968;5.646;2023-03-14T05:48:42;12.1;71.5
78541;SHT31;67835;51.968;5.646;2023-03-14T05:51:12;12.1;71.9
78541;SHT31;67835;51.968;5.646;2023-03-14T05:53:42;12.0;72.0
78541;SHT31;67835;51.968;5.646;2023-03-14T05:56:13;12.0;72.2
78541;SHT31;67835;51.968;5.646;2023-03-14T05:58:43;12.0;72.8
78541;SHT31;67835;51.968;5.646;2023-03-14T06:01:12;11.9;73.0
78541;SHT31;67835;51.968;5.646;2023-03-14T06:03:42;11.9;73.3
78541;SHT31;67835;51.968;5.646;2023-03-14T06:06:11;11.9;73.4
78541;SHT31;67835;51.968;5.646;2023-03-14T06:08:41;11.8;73.7
78541;SHT31;67835;51.968;5.646;2023-03-14T06:11:10;11.8;74.1
78541;SHT31;67835;51.968;5.646;2023-03-14T06:13:40;11.8;74.2
78541;SHT31;67835;51.968;5.646;2023-03-14T06:16:10;11.7;74.7
78541;SHT31;67835;51.968;5.646;2023-03-14T06:18:40;11.7;74.9
78541;SHT31;67835;51.968;5.646;2023-03-14T06:21:09;11.7;75.1
78541;SHT31;67835;51.968;5.646;2023-03-14T06:23:41;11.6;75.5
78541;SHT31;67835;51.968;5.646;2023-03-14T06:26:11;11.6;75.8
78541;SHT31;67835;51.968;5.646;2023-03-14T06:28:41;11.6;76.0
78541;SHT31;67835;51.968;5.646;2023-03-14T06:31:10;11.6;76.4
78541;SHT31;67835;51.968;5.646;2023-03-14T06:33:40;11.6;76.4
78541;SHT31;67835;51.968;5.646;2023-03-14T06:36:10;11.6;76.6
78541;SHT31;67835;51.968;5.646;2023-03-14T06:38:40;11.6;76.8
78541;SHT31;67835;51.968;5.646;2023-03-14T06:41:09;11.6;76.7
78541;SHT31;67835;51.968;5.646;2023-03-14T06:43:39;11.6;76.9
78541;SHT31;67835;51.968;5.646;2023-03-14T06:46:11;11.6;76.9
78541;SHT31;67835;51.968;5.646;2023-03-14T06:48:40;11.6;77.1
78541;SHT31;67835;51.968;5.646;2023-03-14T06:51:11;11.6;77.1
78541;SHT31;67835;51.968;5.646;2023-03-14T06:53:40;11.6;77.1
78541;SHT31;67835;51.968;5.646;2023-03-14T06:56:10;11.6;77.4
78541;SHT31;67835;51.968;5.646;2023-03-14T06:58:40;11.6;77.4
78541;SHT31;67835;51.968;5.646;2023-03-14T07:01:18;11.6;77.4
78541;SHT31;67835;51.968;5.646;2023-03-14T07:03:49;11.6;77.4
78541;SHT31;67835;51.968;5.646;2023-03-14T07:06:19;11.6;77.9
78541;SHT31;67835;51.968;5.646;2023-03-14T07:08:49;11.6;75.3
78541;SHT31;67835;51.968;5.646;2023-03-14T07:11:20;11.6;73.6
78541;SHT31;67835;51.968;5.646;2023-03-14T07:13:50;11.6;72.4
78541;SHT31;67835;51.968;5.646;2023-03-14T07:16:20;11.5;73.1
78541;SHT31;67835;51.968;5.646;2023-03-14T07:18:51;11.5;71.7
78541;SHT31;67835;51.968;5.646;2023-03-14T07:21:21;11.5;71.2
78541;SHT31;67835;51.968;5.646;2023-03-14T07:23:50;11.5;70.4
78541;SHT31;67835;51.968;5.646;2023-03-14T07:26:21;11.4;69.7
78541;SHT31;67835;51.968;5.646;2023-03-14T07:28:52;11.4;69.3
78541;SHT31;67835;51.968;5.646;2023-03-14T07:31:22;11.4;70.1
78541;SHT31;67835;51.968;5.646;2023-03-14T07:33:52;11.3;70.0
78541;SHT31;67835;51.968;5.646;2023-03-14T07:36:21;11.3;69.7
78541;SHT31;67835;51.968;5.646;2023-03-14T07:38:51;11.3;70.4
78541;SHT31;67835;51.968;5.646;2023-03-14T07:41:22;11.2;71.0
78541;SHT31;67835;51.968;5.646;2023-03-14T07:43:52;11.2;71.3
78541;SHT31;67835;51.968;5.646;2023-03-14T07:46:21;11.1;71.4
78541;SHT31;67835;51.968;5.646;2023-03-14T07:48:53;11.1;71.1
78541;SHT31;67835;51.968;5.646;2023-03-14T07:51:23;11.1;71.4
78541;SHT31;67835;51.968;5.646;2023-03-14T07:53:52;11.0;72.1
78541;SHT31;67835;51.968;5.646;2023-03-14T07:56:22;11.0;71.8
78541;SHT31;67835;51.968;5.646;2023-03-14T07:58:51;11.0;72.3
78541;SHT31;67835;51.968;5.646;2023-03-14T08:01:21;11.0;71.2
78541;SHT31;67835;51.968;5.646;2023-03-14T08:03:50;11.0;70.8
78541;SHT31;67835;51.968;5.646;2023-03-14T08:06:19;11.0;70.8
78541;SHT31;67835;51.968;5.646;2023-03-14T08:08:49;11.0;70.7
78541;SHT31;67835;51.968;5.646;2023-03-14T08:11:19;11.0;70.2
78541;SHT31;67835;51.968;5.646;2023-03-14T08:13:50;10.9;70.6
78541;SHT31;67835;51.968;5.646;2023-03-14T08:16:20;10.9;70.1
78541;SHT31;67835;51.968;5.646;2023-03-14T08:18:49;10.9;69.8
78541;SHT31;67835;51.968;5.646;2023-03-14T08:21:19;10.9;69.5
78541;SHT31;67835;51.968;5.646;2023-03-14T08:23:49;10.9;69.3
78541;SHT31;67835;51.968;5.646;2023-03-14T08:26:18;10.9;69.4
78541;SHT31;67835;51.968;5.646;2023-03-14T08:28:49;10.9;69.9
78541;SHT31;67835;51.968;5.646;2023-03-14T08:31:21;10.9;70.6
78541;SHT31;67835;51.968;5.646;2023-03-14T08:33:51;10.9;68.9
78541;SHT31;67835;51.968;5.646;2023-03-14T08:36:22;10.9;68.1
78541;SHT31;67835;51.968;5.646;2023-03-14T08:38:51;10.9;66.8
78541;SHT31;67835;51.968;5.646;2023-03-14T08:41:21;10.8;66.2
78541;SHT31;67835;51.968;5.646;2023-03-14T08:43:51;10.8;65.7
78541;SHT31;67835;51.968;5.646;2023-03-14T08:46:21;10.7;65.5
78541;SHT31;67835;51.968;5.646;2023-03-14T08:48:50;10.6;64.7
78541;SHT31;67835;51.968;5.646;2023-03-14T08:51:20;10.5;65.9
78541;SHT31;67835;51.968;5.646;2023-03-14T08:53:50;10.5;65.4
78541;SHT31;67835;51.968;5.646;2023-03-14T08:56:20;10.5;66.3
78541;SHT31;67835;51.968;5.646;2023-03-14T08:58:51;10.5;64.9
78541;SHT31;67835;51.968;5.646;2023-03-14T09:01:21;10.5;65.6
78541;SHT31;67835;51.968;5.646;2023-03-14T09:03:52;10.5;65.7
78541;SHT31;67835;51.968;5.646;2023-03-14T09:06:22;10.4;67.0
78541;SHT31;67835;51.968;5.646;2023-03-14T09:08:54;10.4;66.1
78541;SHT31;67835;51.968;5.646;2023-03-14T09:11:24;10.4;65.9
78541;SHT31;67835;51.968;5.646;2023-03-14T09:13:55;10.4;66.2
78541;SHT31;67835;51.968;5.646;2023-03-14T09:16:24;10.4;67.2
78541;SHT31;67835;51.968;5.646;2023-03-14T09:18:54;10.5;66.1
78541;SHT31;67835;51.968;5.646;2023-03-14T09:21:27;10.6;65.6
78541;SHT31;67835;51.968;5.646;2023-03-14T09:23:56;10.8;64.1
78541;SHT31;67835;51.968;5.646;2023-03-14T09:26:26;10.9;62.2
78541;SHT31;67835;51.968;5.646;2023-03-14T09:28:55;11.0;61.5
78541;SHT31;67835;51.968;5.646;2023-03-14T09:31:25;11.1;62.7
78541;SHT31;67835;51.968;5.646;2023-03-14T09:33:56;11.3;60.9
78541;SHT31;67835;51.968;5.646;2023-03-14T09:36:25;11.4;61.1
78541;SHT31;67835;51.968;5.646;2023-03-14T09:38:55;11.6;58.0
78541;SHT31;67835;51.968;5.646;2023-03-14T09:41:29;11.7;57.4
78541;SHT31;67835;51.968;5.646;2023-03-14T09:44:04;11.7;55.2
78541;SHT31;67835;51.968;5.646;2023-03-14T09:46:38;11.8;56.8
78541;SHT31;67835;51.968;5.646;2023-03-14T09:49:17;11.8;54.9
78541;SHT31;67835;51.968;5.646;2023-03-14T09:51:52;11.9;54.8
78541;SHT31;67835;51.968;5.646;2023-03-14T09:54:35;11.9;55.0
78541;SHT31;67835;51.968;5.646;2023-03-14T09:57:10;11.9;55.2
78541;SHT31;67835;51.968;5.646;2023-03-14T09:59:43;12.0;55.5
78541;SHT31;67835;51.968;5.646;2023-03-14T10:02:19;12.0;53.9
78541;SHT31;67835;51.968;5.646;2023-03-14T10:04:51;12.1;54.4
78541;SHT31;67835;51.968;5.646;2023-03-14T10:07:27;12.2;54.1
78541;SHT31;67835;51.968;5.646;2023-03-14T10:09:58;12.3;53.6
78541;SHT31;67835;51.968;5.646;2023-03-14T10:12:36;12.4;51.9
78541;SHT31;67835;51.968;5.646;2023-03-14T10:15:09;12.5;52.1
78541;SHT31;67835;51.968;5.646;2023-03-14T10:17:42;12.5;53.1
78541;SHT31;67835;51.968;5.646;2023-03-14T10:20:27;12.6;52.9
78541;SHT31;67835;51.968;5.646;2023-03-14T10:23:03;12.7;51.5
78541;SHT31;67835;51.968;5.646;2023-03-14T10:25:36;12.7;50.2
78541;SHT31;67835;51.968;5.646;2023-03-14T10:28:22;12.7;50.7
78541;SHT31;67835;51.968;5.646;2023-03-14T10:30:47;12.8;50.0
78541;SHT31;67835;51.968;5.646;2023-03-14T10:33:23;12.8;50.0
78541;SHT31;67835;51.968;5.646;2023-03-14T10:35:58;12.8;49.4
78541;SHT31;67835;51.968;5.646;2023-03-14T10:38:30;12.9;50.1
78541;SHT31;67835;51.968;5.646;2023-03-14T10:41:01;12.9;49.2
78541;SHT31;67835;51.968;5.646;2023-03-14T10:43:35;13.0;49.3
78541;SHT31;67835;51.968;5.646;2023-03-14T10:46:11;13.1;50.1
78541;SHT31;67835;51.968;5.646;2023-03-14T10:48:43;13.2;51.7
78541;SHT31;67835;51.968;5.646;2023-03-14T10:51:24;13.2;49.2
78541;SHT31;67835;51.968;5.646;2023-03-14T10:53:59;13.1;49.8
78541;SHT31;67835;51.968;5.646;2023-03-14T10:56:36;12.9;50.4
78541;SHT31;67835;51.968;5.646;2023-03-14T10:59:15;12.8;51.1
78541;SHT31;67835;51.968;5.646;2023-03-14T11:01:54;12.8;51.3
78541;SHT31;67835;51.968;5.646;2023-03-14T11:04:43;12.8;51.7
78541;SHT31;67835;51.968;5.646;2023-03-14T11:07:22;12.9;52.1
78541;SHT31;67835;51.968;5.646;2023-03-14T11:09:58;12.9;51.7
78541;SHT31;67835;51.968;5.646;2023-03-14T11:12:41;13.0;51.4
78541;SHT31;67835;51.968;5.646;2023-03-14T11:15:21;13.1;52.1
78541;SHT31;67835;51.968;5.646;2023-03-14T11:18:23;13.2;50.9
78541;SHT31;67835;51.968;5.646;2023-03-14T11:21:00;13.3;49.3
78541;SHT31;67835;51.968;5.646;2023-03-14T11:23:41;13.4;48.0
78541;SHT31;67835;51.968;5.646;2023-03-14T11:26:31;13.4;46.1
78541;SHT31;67835;51.968;5.646;2023-03-14T11:29:16;13.4;46.6
78541;SHT31;67835;51.968;5.646;2023-03-14T11:31:49;13.4;46.6
78541;SHT31;67835;51.968;5.646;2023-03-14T11:34:27;13.3;45.5
78541;SHT31;67835;51.968;5.646;2023-03-14T11:37:01;13.2;46.3
78541;SHT31;67835;51.968;5.646;2023-03-14T11:39:39;13.2;46.1
78541;SHT31;67835;51.968;5.646;2023-03-14T11:42:14;13.3;47.9
78541;SHT31;67835;51.968;5.646;2023-03-14T11:44:48;13.6;46.2
78541;SHT31;67835;51.968;5.646;2023-03-14T11:47:22;14.1;45.8
78541;SHT31;67835;51.968;5.646;2023-03-14T11:49:58;15.1;42.9
78541;SHT31;67835;51.968;5.646;2023-03-14T11:52:33;16.4;41.3
78541;SHT31;67835;51.968;5.646;2023-03-14T11:55:13;17.5;37.3
78541;SHT31;67835;51.968;5.646;2023-03-14T11:57:48;18.0;34.8
78541;SHT31;67835;51.968;5.646;2023-03-14T12:00:22;18.1;34.2
78541;SHT31;67835;51.968;5.646;2023-03-14T12:03:01;18.0;33.3
78541;SHT31;67835;51.968;5.646;2023-03-14T12:05:40;17.8;33.0
78541;SHT31;67835;51.968;5.646;2023-03-14T12:08:56;17.6;34.0
78541;SHT31;67835;51.968;5.646;2023-03-14T12:11:34;17.6;35.1
78541;SHT31;67835;51.968;5.646;2023-03-14T12:14:21;18.0;33.7
78541;SHT31;67835;51.968;5.646;2023-03-14T12:16:54;18.5;33.5
78541;SHT31;67835;51.968;5.646;2023-03-14T12:19:33;18.7;31.5
78541;SHT31;67835;51.968;5.646;2023-03-14T12:24:22;18.8;30.5
78541;SHT31;67835;51.968;5.646;2023-03-14T12:26:55;18.8;31.9
78541;SHT31;67835;51.968;5.646;2023-03-14T12:29:26;18.9;32.3
78541;SHT31;67835;51.968;5.646;2023-03-14T12:32:23;19.1;31.2
78541;SHT31;67835;51.968;5.646;2023-03-14T12:34:53;19.4;30.3
78541;SHT31;67835;51.968;5.646;2023-03-14T12:37:35;19.8;28.8
78541;SHT31;67835;51.968;5.646;2023-03-14T12:40:19;20.2;28.1
78541;SHT31;67835;51.968;5.646;2023-03-14T12:42:58;20.4;27.7
78541;SHT31;67835;51.968;5.646;2023-03-14T12:45:31;20.6;24.6
78541;SHT31;67835;51.968;5.646;2023-03-14T12:48:20;20.6;25.3
78541;SHT31;67835;51.968;5.646;2023-03-14T12:51:00;20.6;25.8
78541;SHT31;67835;51.968;5.646;2023-03-14T12:54:00;20.6;24.9
78541;SHT31;67835;51.968;5.646;2023-03-14T12:57:47;20.5;25.7
78541;SHT31;67835;51.968;5.646;2023-03-14T13:00:20;20.4;27.9
78541;SHT31;67835;51.968;5.646;2023-03-14T13:02:51;20.4;27.8
78541;SHT31;67835;51.968;5.646;2023-03-14T13:05:23;20.5;27.0
78541;SHT31;67835;51.968;5.646;2023-03-14T13:08:09;20.7;26.8
78541;SHT31;67835;51.968;5.646;2023-03-14T13:10:46;20.8;26.4
78541;SHT31;67835;51.968;5.646;2023-03-14T13:13:21;21.0;25.1
78541;SHT31;67835;51.968;5.646;2023-03-14T13:15:57;21.0;23.7
78541;SHT31;67835;51.968;5.646;2023-03-14T13:18:35;21.0;23.8
78541;SHT31;67835;51.968;5.646;2023-03-14T13:21:11;20.9;24.5
78541;SHT31;67835;51.968;5.646;2023-03-14T13:23:59;20.9;25.7
78541;SHT31;67835;51.968;5.646;2023-03-14T13:26:36;21.0;23.4
78541;SHT31;67835;51.968;5.646;2023-03-14T13:29:20;21.1;22.5
78541;SHT31;67835;51.968;5.646;2023-03-14T13:31:51;21.1;23.4
78541;SHT31;67835;51.968;5.646;2023-03-14T13:34:25;21.0;23.5
78541;SHT31;67835;51.968;5.646;2023-03-14T13:36:55;21.0;23.5
78541;SHT31;67835;51.968;5.646;2023-03-14T13:39:28;20.8;24.0
78541;SHT31;67835;51.968;5.646;2023-03-14T13:42:01;20.6;24.6
78541;SHT31;67835;51.968;5.646;2023-03-14T13:44:34;20.5;23.4
78541;SHT31;67835;51.968;5.646;2023-03-14T13:47:13;20.4;24.3
78541;SHT31;67835;51.968;5.646;2023-03-14T13:49:46;20.4;25.6
78541;SHT31;67835;51.968;5.646;2023-03-14T13:52:29;20.4;25.6
78541;SHT31;67835;51.968;5.646;2023-03-14T13:55:01;20.5;22.9
78541;SHT31;67835;51.968;5.646;2023-03-14T13:57:44;20.5;23.8
78541;SHT31;67835;51.968;5.646;2023-03-14T14:00:20;20.4;23.5
78541;SHT31;67835;51.968;5.646;2023-03-14T14:02:55;20.4;23.9
78541;SHT31;67835;51.968;5.646;2023-03-14T14:05:29;20.3;23.9
78541;SHT31;67835;51.968;5.646;2023-03-14T14:08:02;20.2;24.5
78541;SHT31;67835;51.968;5.646;2023-03-14T14:10:37;20.2;24.6
78541;SHT31;67835;51.968;5.646;2023-03-14T14:13:14;20.2;23.7
78541;SHT31;67835;51.968;5.646;2023-03-14T14:15:49;20.2;23.9
78541;SHT31;67835;51.968;5.646;2023-03-14T14:18:25;20.1;24.5
78541;SHT31;67835;51.968;5.646;2023-03-14T14:20:56;20.1;23.0
78541;SHT31;67835;51.968;5.646;2023-03-14T14:23:28;19.9;23.8
78541;SHT31;67835;51.968;5.646;2023-03-14T14:25:59;19.8;23.4
78541;SHT31;67835;51.968;5.646;2023-03-14T14:28:31;19.5;24.0
78541;SHT31;67835;51.968;5.646;2023-03-14T14:31:04;19.1;24.0
78541;SHT31;67835;51.968;5.646;2023-03-14T14:33:42;18.7;26.0
78541;SHT31;67835;51.968;5.646;2023-03-14T14:36:21;18.3;26.8
78541;SHT31;67835;51.968;5.646;2023-03-14T14:38:58;18.0;27.4
78541;SHT31;67835;51.968;5.646;2023-03-14T14:41:32;17.7;27.4
78541;SHT31;67835;51.968;5.646;2023-03-14T14:44:04;17.4;28.0
78541;SHT31;67835;51.968;5.646;2023-03-14T14:46:36;17.1;28.4
78541;SHT31;67835;51.968;5.646;2023-03-14T14:49:11;16.8;27.7
78541;SHT31;67835;51.968;5.646;2023-03-14T14:51:44;16.5;27.8
78541;SHT31;67835;51.968;5.646;2023-03-14T14:54:18;16.2;27.7
78541;SHT31;67835;51.968;5.646;2023-03-14T14:56:51;15.9;28.8
78541;SHT31;67835;51.968;5.646;2023-03-14T14:59:24;15.7;29.2
78541;SHT31;67835;51.968;5.646;2023-03-14T15:02:00;15.6;30.1
78541;SHT31;67835;51.968;5.646;2023-03-14T15:04:32;15.4;30.3
78541;SHT31;67835;51.968;5.646;2023-03-14T15:07:02;15.2;30.8
78541;SHT31;67835;51.968;5.646;2023-03-14T15:09:32;15.0;31.0
78541;SHT31;67835;51.968;5.646;2023-03-14T15:12:02;14.8;29.9
78541;SHT31;67835;51.968;5.646;2023-03-14T15:14:31;14.6;29.5
78541;SHT31;67835;51.968;5.646;2023-03-14T15:17:01;14.5;30.7
78541;SHT31;67835;51.968;5.646;2023-03-14T15:19:33;14.3;30.8
78541;SHT31;67835;51.968;5.646;2023-03-14T15:22:03;14.1;30.4
78541;SHT31;67835;51.968;5.646;2023-03-14T15:24:33;13.9;30.6
78541;SHT31;67835;51.968;5.646;2023-03-14T15:27:04;13.7;31.6
78541;SHT31;67835;51.968;5.646;2023-03-14T15:29:35;13.6;31.5
78541;SHT31;67835;51.968;5.646;2023-03-14T15:32:08;13.4;30.9
78541;SHT31;67835;51.968;5.646;2023-03-14T15:34:39;13.3;31.7
78541;SHT31;67835;51.968;5.646;2023-03-14T15:37:12;13.1;32.4
78541;SHT31;67835;51.968;5.646;2023-03-14T15:39:43;13.0;32.5
78541;SHT31;67835;51.968;5.646;2023-03-14T15:42:13;12.9;33.4
78541;SHT31;67835;51.968;5.646;2023-03-14T15:44:45;12.8;32.3
78541;SHT31;67835;51.968;5.646;2023-03-14T15:47:16;12.7;32.3
78541;SHT31;67835;51.968;5.646;2023-03-14T15:49:46;12.6;31.8
78541;SHT31;67835;51.968;5.646;2023-03-14T15:52:15;12.5;33.1
78541;SHT31;67835;51.968;5.646;2023-03-14T15:54:45;12.4;33.3
78541;SHT31;67835;51.968;5.646;2023-03-14T15:57:14;12.4;34.2
78541;SHT31;67835;51.968;5.646;2023-03-14T15:59:44;12.3;34.5
78541;SHT31;67835;51.968;5.646;2023-03-14T16:02:13;12.2;35.6
78541;SHT31;67835;51.968;5.646;2023-03-14T16:04:43;12.1;33.7
78541;SHT31;67835;51.968;5.646;2023-03-14T16:07:13;12.0;34.2
78541;SHT31;67835;51.968;5.646;2023-03-14T16:09:42;11.9;33.2
78541;SHT31;67835;51.968;5.646;2023-03-14T16:12:12;11.8;33.4
78541;SHT31;67835;51.968;5.646;2023-03-14T16:14:41;11.7;33.3
78541;SHT31;67835;51.968;5.646;2023-03-14T16:17:11;11.6;33.7
78541;SHT31;67835;51.968;5.646;2023-03-14T16:19:40;11.6;34.2
78541;SHT31;67835;51.968;5.646;2023-03-14T16:22:11;11.5;35.8
78541;SHT31;67835;51.968;5.646;2023-03-14T16:24:40;11.4;36.3
78541;SHT31;67835;51.968;5.646;2023-03-14T16:27:10;11.4;36.7
78541;SHT31;67835;51.968;5.646;2023-03-14T16:29:40;11.3;35.4
78541;SHT31;67835;51.968;5.646;2023-03-14T16:32:13;11.2;34.1
78541;SHT31;67835;51.968;5.646;2023-03-14T16:34:42;11.2;34.9
78541;SHT31;67835;51.968;5.646;2023-03-14T16:37:14;11.1;34.3
78541;SHT31;67835;51.968;5.646;2023-03-14T16:39:44;11.0;35.3